Terminal Aerodrome Forecast
Issued by NWS Newport/Morehead City, NC

Home | Current Version | Previous Version | Text Only | Print | Product List | Glossary On
Versions: 1 2 3 4 5 6 7 8 9 10 11 12 13 14 15 16 17 18
000
FTUS42 KMHX 220500 RRA
TAFEWN
TAF
KEWN 220548Z 2206/2306 VRB03KT P6SM SCT005 BKN025
      TEMPO 2207/2211 5SM BR BKN005
     FM221300 15005KT P6SM VCSH SCT015 BKN030
     FM221600 15008KT P6SM VCTS SCT015 BKN035CB
     FM230000 18003KT P6SM SCT025 OVC120=

USA.gov is the U.S. government's official web portal to all federal, state and local government web resources and services.